aviador You're here:

HEBA Decoded Metar

ALEXANDRIA BORG in EGYPT
Report Time2017-10-17 19:00:00
UTC Time2017-10-17 20:30:26
Flight Rules Old
Wind050° at 06 kt
W.Decomp.*RWY 32: 0.4 kt HW 6.0 kt RCW
W.Rank050° ranks 26
Current wind is below 050° avg. (7.3)
Visibility9999 m
Phenomena:N/A
Clouds:N/A
Expected CloudBase > 1,200 ft AGL from Temp-Dew spread
CeilingNone
Temp21°C (ISA +6)
Dew Point18°C (83% RH)
QNH1018 hPa
Density Alt1,024 ft
Elevation177 ft
Report Wrong Elevation
Raw Report
HEBA 171900Z 05006KT CAVOK 21/18 Q1018 NOSIG=

Extra information for HEBA:More info

Metar Taf Metar & Taf Last 4 Metars F.Rules Stats Wind Profile Meteogram Temp Stats Airport Information Weather charts Add Link Nearby VenuesMetar ALERT Operation Metar Decoded Social comments